sensor_id;sensor_type;location;lat;lon;timestamp;P1;durP1;ratioP1;P2;durP2;ratioP2
31282;SDS011;17915;52.540;13.604;2023-11-22T00:00:21;11.23;;;5.63;;
31282;SDS011;17915;52.540;13.604;2023-11-22T00:02:47;7.27;;;5.00;;
31282;SDS011;17915;52.540;13.604;2023-11-22T00:05:12;7.87;;;4.77;;
31282;SDS011;17915;52.540;13.604;2023-11-22T00:07:38;5.53;;;4.17;;
31282;SDS011;17915;52.540;13.604;2023-11-22T00:10:04;10.03;;;5.20;;
31282;SDS011;17915;52.540;13.604;2023-11-22T00:15:01;9.98;;;4.57;;
31282;SDS011;17915;52.540;13.604;2023-11-22T00:17:33;12.00;;;4.82;;
31282;SDS011;17915;52.540;13.604;2023-11-22T00:19:59;10.82;;;4.95;;
31282;SDS011;17915;52.540;13.604;2023-11-22T00:22:31;7.25;;;5.47;;
31282;SDS011;17915;52.540;13.604;2023-11-22T00:24:59;11.00;;;5.10;;
31282;SDS011;17915;52.540;13.604;2023-11-22T00:27:26;15.40;;;5.60;;
31282;SDS011;17915;52.540;13.604;2023-11-22T00:29:52;8.23;;;5.43;;
31282;SDS011;17915;52.540;13.604;2023-11-22T00:32:18;10.30;;;5.93;;
31282;SDS011;17915;52.540;13.604;2023-11-22T00:34:44;7.28;;;5.38;;
31282;SDS011;17915;52.540;13.604;2023-11-22T00:37:09;6.23;;;4.70;;
31282;SDS011;17915;52.540;13.604;2023-11-22T00:39:35;9.13;;;4.82;;
31282;SDS011;17915;52.540;13.604;2023-11-22T00:42:02;8.38;;;5.50;;
31282;SDS011;17915;52.540;13.604;2023-11-22T00:44:28;7.88;;;5.13;;
31282;SDS011;17915;52.540;13.604;2023-11-22T00:46:54;11.52;;;5.90;;
31282;SDS011;17915;52.540;13.604;2023-11-22T00:49:20;12.60;;;5.40;;
31282;SDS011;17915;52.540;13.604;2023-11-22T00:51:46;9.30;;;5.30;;
31282;SDS011;17915;52.540;13.604;2023-11-22T00:54:13;7.30;;;4.70;;
31282;SDS011;17915;52.540;13.604;2023-11-22T00:56:38;9.63;;;5.50;;
31282;SDS011;17915;52.540;13.604;2023-11-22T00:59:04;7.83;;;5.63;;
31282;SDS011;17915;52.540;13.604;2023-11-22T01:01:29;6.93;;;5.37;;
31282;SDS011;17915;52.540;13.604;2023-11-22T01:03:56;10.43;;;5.85;;
31282;SDS011;17915;52.540;13.604;2023-11-22T01:06:22;10.60;;;6.10;;
31282;SDS011;17915;52.540;13.604;2023-11-22T01:08:48;10.83;;;5.10;;
31282;SDS011;17915;52.540;13.604;2023-11-22T01:11:13;13.47;;;6.00;;
31282;SDS011;17915;52.540;13.604;2023-11-22T01:13:39;12.07;;;5.23;;
31282;SDS011;17915;52.540;13.604;2023-11-22T01:16:08;8.75;;;5.53;;
31282;SDS011;17915;52.540;13.604;2023-11-22T01:18:34;12.35;;;7.00;;
31282;SDS011;17915;52.540;13.604;2023-11-22T01:21:00;7.93;;;5.60;;
31282;SDS011;17915;52.540;13.604;2023-11-22T01:23:25;12.00;;;5.37;;
31282;SDS011;17915;52.540;13.604;2023-11-22T01:25:52;11.93;;;5.45;;
31282;SDS011;17915;52.540;13.604;2023-11-22T01:28:18;9.40;;;5.13;;
31282;SDS011;17915;52.540;13.604;2023-11-22T01:30:44;16.27;;;5.47;;
31282;SDS011;17915;52.540;13.604;2023-11-22T01:33:12;7.20;;;5.47;;
31282;SDS011;17915;52.540;13.604;2023-11-22T01:35:37;8.93;;;5.80;;
31282;SDS011;17915;52.540;13.604;2023-11-22T01:38:03;12.43;;;5.93;;
31282;SDS011;17915;52.540;13.604;2023-11-22T01:40:30;6.47;;;5.90;;
31282;SDS011;17915;52.540;13.604;2023-11-22T01:42:55;8.20;;;5.65;;
31282;SDS011;17915;52.540;13.604;2023-11-22T01:45:21;7.33;;;5.10;;
31282;SDS011;17915;52.540;13.604;2023-11-22T01:47:47;10.50;;;4.40;;
31282;SDS011;17915;52.540;13.604;2023-11-22T01:50:12;6.30;;;4.33;;
31282;SDS011;17915;52.540;13.604;2023-11-22T01:52:39;8.57;;;4.57;;
31282;SDS011;17915;52.540;13.604;2023-11-22T01:55:05;6.85;;;5.15;;
31282;SDS011;17915;52.540;13.604;2023-11-22T01:57:31;6.72;;;4.75;;
31282;SDS011;17915;52.540;13.604;2023-11-22T02:00:01;10.45;;;4.75;;
31282;SDS011;17915;52.540;13.604;2023-11-22T02:02:28;5.03;;;4.50;;
31282;SDS011;17915;52.540;13.604;2023-11-22T02:04:54;7.68;;;4.30;;
31282;SDS011;17915;52.540;13.604;2023-11-22T02:07:19;7.80;;;4.70;;
31282;SDS011;17915;52.540;13.604;2023-11-22T02:09:45;6.97;;;3.92;;
31282;SDS011;17915;52.540;13.604;2023-11-22T02:12:11;6.00;;;4.00;;
31282;SDS011;17915;52.540;13.604;2023-11-22T02:14:37;5.30;;;4.00;;
31282;SDS011;17915;52.540;13.604;2023-11-22T02:17:03;6.28;;;3.95;;
31282;SDS011;17915;52.540;13.604;2023-11-22T02:19:28;5.30;;;4.30;;
31282;SDS011;17915;52.540;13.604;2023-11-22T02:21:55;5.70;;;4.65;;
31282;SDS011;17915;52.540;13.604;2023-11-22T02:24:21;6.88;;;4.43;;
31282;SDS011;17915;52.540;13.604;2023-11-22T02:26:46;7.40;;;4.22;;
31282;SDS011;17915;52.540;13.604;2023-11-22T02:29:12;5.07;;;3.57;;
31282;SDS011;17915;52.540;13.604;2023-11-22T02:31:39;6.23;;;4.53;;
31282;SDS011;17915;52.540;13.604;2023-11-22T02:34:06;8.80;;;4.85;;
31282;SDS011;17915;52.540;13.604;2023-11-22T02:36:31;25.77;;;6.37;;
31282;SDS011;17915;52.540;13.604;2023-11-22T02:38:56;7.53;;;4.63;;
31282;SDS011;17915;52.540;13.604;2023-11-22T02:41:22;5.63;;;4.30;;
31282;SDS011;17915;52.540;13.604;2023-11-22T02:43:47;6.43;;;4.27;;
31282;SDS011;17915;52.540;13.604;2023-11-22T02:46:12;3.50;;;2.80;;
31282;SDS011;17915;52.540;13.604;2023-11-22T02:48:39;7.20;;;5.07;;
31282;SDS011;17915;52.540;13.604;2023-11-22T02:51:04;6.23;;;4.67;;
31282;SDS011;17915;52.540;13.604;2023-11-22T02:53:31;6.80;;;4.50;;
31282;SDS011;17915;52.540;13.604;2023-11-22T02:56:00;5.35;;;3.50;;
31282;SDS011;17915;52.540;13.604;2023-11-22T02:58:27;4.60;;;4.15;;
31282;SDS011;17915;52.540;13.604;2023-11-22T03:00:55;12.13;;;4.63;;
31282;SDS011;17915;52.540;13.604;2023-11-22T03:05:48;10.85;;;4.65;;
31282;SDS011;17915;52.540;13.604;2023-11-22T03:10:41;9.45;;;4.82;;
31282;SDS011;17915;52.540;13.604;2023-11-22T03:13:07;7.55;;;4.38;;
31282;SDS011;17915;52.540;13.604;2023-11-22T03:15:33;8.13;;;5.32;;
31282;SDS011;17915;52.540;13.604;2023-11-22T03:17:59;7.95;;;5.47;;
31282;SDS011;17915;52.540;13.604;2023-11-22T03:20:25;8.77;;;5.57;;
31282;SDS011;17915;52.540;13.604;2023-11-22T03:22:50;8.93;;;4.97;;
31282;SDS011;17915;52.540;13.604;2023-11-22T03:25:16;7.65;;;4.65;;
31282;SDS011;17915;52.540;13.604;2023-11-22T03:27:41;9.50;;;5.10;;
31282;SDS011;17915;52.540;13.604;2023-11-22T03:30:07;11.50;;;5.10;;
31282;SDS011;17915;52.540;13.604;2023-11-22T03:32:37;6.63;;;5.63;;
31282;SDS011;17915;52.540;13.604;2023-11-22T03:35:04;9.73;;;5.47;;
31282;SDS011;17915;52.540;13.604;2023-11-22T03:37:31;10.80;;;5.97;;
31282;SDS011;17915;52.540;13.604;2023-11-22T03:39:57;7.13;;;4.90;;
31282;SDS011;17915;52.540;13.604;2023-11-22T03:42:22;9.30;;;6.47;;
31282;SDS011;17915;52.540;13.604;2023-11-22T03:44:48;7.67;;;4.33;;
31282;SDS011;17915;52.540;13.604;2023-11-22T03:47:13;13.27;;;6.27;;
31282;SDS011;17915;52.540;13.604;2023-11-22T03:49:40;6.85;;;5.40;;
31282;SDS011;17915;52.540;13.604;2023-11-22T03:52:06;8.98;;;5.85;;
31282;SDS011;17915;52.540;13.604;2023-11-22T03:54:31;9.77;;;5.63;;
31282;SDS011;17915;52.540;13.604;2023-11-22T03:56:57;11.02;;;5.45;;
31282;SDS011;17915;52.540;13.604;2023-11-22T03:59:23;10.55;;;5.57;;
31282;SDS011;17915;52.540;13.604;2023-11-22T04:01:49;12.50;;;6.13;;
31282;SDS011;17915;52.540;13.604;2023-11-22T04:04:15;11.20;;;6.03;;
31282;SDS011;17915;52.540;13.604;2023-11-22T04:06:41;13.50;;;6.95;;
31282;SDS011;17915;52.540;13.604;2023-11-22T04:09:06;12.57;;;6.20;;
31282;SDS011;17915;52.540;13.604;2023-11-22T04:11:33;10.18;;;5.72;;
31282;SDS011;17915;52.540;13.604;2023-11-22T04:16:25;8.77;;;5.43;;
31282;SDS011;17915;52.540;13.604;2023-11-22T04:18:50;11.63;;;6.57;;
31282;SDS011;17915;52.540;13.604;2023-11-22T04:21:15;11.00;;;5.73;;
31282;SDS011;17915;52.540;13.604;2023-11-22T04:23:41;10.40;;;5.97;;
31282;SDS011;17915;52.540;13.604;2023-11-22T04:26:06;8.40;;;5.97;;
31282;SDS011;17915;52.540;13.604;2023-11-22T04:28:32;11.85;;;5.85;;
31282;SDS011;17915;52.540;13.604;2023-11-22T04:30:58;10.63;;;6.28;;
31282;SDS011;17915;52.540;13.604;2023-11-22T04:33:24;7.93;;;5.53;;
31282;SDS011;17915;52.540;13.604;2023-11-22T04:35:50;10.32;;;6.45;;
31282;SDS011;17915;52.540;13.604;2023-11-22T04:38:16;15.48;;;6.60;;
31282;SDS011;17915;52.540;13.604;2023-11-22T04:40:42;8.90;;;5.82;;
31282;SDS011;17915;52.540;13.604;2023-11-22T04:43:08;15.88;;;7.13;;
31282;SDS011;17915;52.540;13.604;2023-11-22T04:45:33;9.52;;;6.13;;
31282;SDS011;17915;52.540;13.604;2023-11-22T04:47:59;10.88;;;6.53;;
31282;SDS011;17915;52.540;13.604;2023-11-22T04:50:25;7.37;;;6.10;;
31282;SDS011;17915;52.540;13.604;2023-11-22T04:52:50;11.27;;;5.70;;
31282;SDS011;17915;52.540;13.604;2023-11-22T04:55:16;9.98;;;6.07;;
31282;SDS011;17915;52.540;13.604;2023-11-22T04:57:41;15.37;;;5.60;;
31282;SDS011;17915;52.540;13.604;2023-11-22T05:00:07;11.33;;;6.83;;
31282;SDS011;17915;52.540;13.604;2023-11-22T05:02:33;11.52;;;6.25;;
31282;SDS011;17915;52.540;13.604;2023-11-22T05:04:58;11.50;;;6.57;;
31282;SDS011;17915;52.540;13.604;2023-11-22T05:07:23;11.50;;;6.10;;
31282;SDS011;17915;52.540;13.604;2023-11-22T05:09:49;13.20;;;6.03;;
31282;SDS011;17915;52.540;13.604;2023-11-22T05:12:14;18.73;;;5.47;;
31282;SDS011;17915;52.540;13.604;2023-11-22T05:14:39;13.40;;;6.63;;
31282;SDS011;17915;52.540;13.604;2023-11-22T05:17:05;6.82;;;5.32;;
31282;SDS011;17915;52.540;13.604;2023-11-22T05:19:31;10.13;;;5.30;;
31282;SDS011;17915;52.540;13.604;2023-11-22T05:21:56;7.73;;;5.63;;
31282;SDS011;17915;52.540;13.604;2023-11-22T05:24:22;13.30;;;6.20;;
31282;SDS011;17915;52.540;13.604;2023-11-22T05:26:47;9.63;;;5.90;;
31282;SDS011;17915;52.540;13.604;2023-11-22T05:29:13;10.43;;;7.00;;
31282;SDS011;17915;52.540;13.604;2023-11-22T05:31:38;9.27;;;5.87;;
31282;SDS011;17915;52.540;13.604;2023-11-22T05:34:03;13.50;;;6.67;;
31282;SDS011;17915;52.540;13.604;2023-11-22T05:36:29;11.37;;;6.57;;
31282;SDS011;17915;52.540;13.604;2023-11-22T05:38:55;9.30;;;5.00;;
31282;SDS011;17915;52.540;13.604;2023-11-22T05:41:22;12.30;;;6.78;;
31282;SDS011;17915;52.540;13.604;2023-11-22T05:43:48;9.90;;;6.30;;
31282;SDS011;17915;52.540;13.604;2023-11-22T05:46:13;10.20;;;6.10;;
31282;SDS011;17915;52.540;13.604;2023-11-22T05:48:39;13.15;;;6.15;;
31282;SDS011;17915;52.540;13.604;2023-11-22T05:51:05;12.38;;;6.47;;
31282;SDS011;17915;52.540;13.604;2023-11-22T05:53:30;11.10;;;6.40;;
31282;SDS011;17915;52.540;13.604;2023-11-22T05:55:56;16.53;;;6.47;;
31282;SDS011;17915;52.540;13.604;2023-11-22T05:58:21;15.13;;;6.97;;
31282;SDS011;17915;52.540;13.604;2023-11-22T06:00:46;7.63;;;5.43;;
31282;SDS011;17915;52.540;13.604;2023-11-22T06:03:12;10.37;;;6.20;;
31282;SDS011;17915;52.540;13.604;2023-11-22T06:05:38;8.55;;;5.28;;
31282;SDS011;17915;52.540;13.604;2023-11-22T06:08:04;7.88;;;6.43;;
31282;SDS011;17915;52.540;13.604;2023-11-22T06:10:30;11.52;;;6.25;;
31282;SDS011;17915;52.540;13.604;2023-11-22T06:12:55;9.90;;;6.60;;
31282;SDS011;17915;52.540;13.604;2023-11-22T06:15:21;9.80;;;6.57;;
31282;SDS011;17915;52.540;13.604;2023-11-22T06:17:47;11.02;;;6.63;;
31282;SDS011;17915;52.540;13.604;2023-11-22T06:20:13;12.75;;;6.88;;
31282;SDS011;17915;52.540;13.604;2023-11-22T06:22:39;14.23;;;6.47;;
31282;SDS011;17915;52.540;13.604;2023-11-22T06:25:10;8.95;;;5.90;;
31282;SDS011;17915;52.540;13.604;2023-11-22T06:27:36;6.75;;;5.18;;
31282;SDS011;17915;52.540;13.604;2023-11-22T06:30:02;8.20;;;5.65;;
31282;SDS011;17915;52.540;13.604;2023-11-22T06:32:28;15.13;;;6.53;;
31282;SDS011;17915;52.540;13.604;2023-11-22T06:34:54;8.82;;;5.70;;
31282;SDS011;17915;52.540;13.604;2023-11-22T06:37:19;14.07;;;7.10;;
31282;SDS011;17915;52.540;13.604;2023-11-22T06:42:11;11.60;;;5.55;;
31282;SDS011;17915;52.540;13.604;2023-11-22T06:44:36;18.60;;;7.40;;
31282;SDS011;17915;52.540;13.604;2023-11-22T06:47:02;9.70;;;6.17;;
31282;SDS011;17915;52.540;13.604;2023-11-22T06:49:27;10.20;;;6.83;;
31282;SDS011;17915;52.540;13.604;2023-11-22T06:51:53;12.73;;;7.30;;
31282;SDS011;17915;52.540;13.604;2023-11-22T06:54:19;13.93;;;5.83;;
31282;SDS011;17915;52.540;13.604;2023-11-22T06:56:45;9.13;;;5.85;;
31282;SDS011;17915;52.540;13.604;2023-11-22T06:59:11;19.08;;;6.68;;
31282;SDS011;17915;52.540;13.604;2023-11-22T07:01:36;10.23;;;6.33;;
31282;SDS011;17915;52.540;13.604;2023-11-22T07:04:01;10.20;;;5.77;;
31282;SDS011;17915;52.540;13.604;2023-11-22T07:06:29;12.43;;;6.85;;
31282;SDS011;17915;52.540;13.604;2023-11-22T07:08:54;13.70;;;7.47;;
31282;SDS011;17915;52.540;13.604;2023-11-22T07:11:23;13.63;;;7.37;;
31282;SDS011;17915;52.540;13.604;2023-11-22T07:13:49;12.80;;;7.75;;
31282;SDS011;17915;52.540;13.604;2023-11-22T07:16:14;16.63;;;7.23;;
31282;SDS011;17915;52.540;13.604;2023-11-22T07:18:40;17.35;;;6.40;;
31282;SDS011;17915;52.540;13.604;2023-11-22T07:21:05;12.27;;;6.80;;
31282;SDS011;17915;52.540;13.604;2023-11-22T07:23:31;8.17;;;5.77;;
31282;SDS011;17915;52.540;13.604;2023-11-22T07:25:56;13.47;;;7.60;;
31282;SDS011;17915;52.540;13.604;2023-11-22T07:28:22;10.13;;;6.95;;
31282;SDS011;17915;52.540;13.604;2023-11-22T07:30:47;15.07;;;7.20;;
31282;SDS011;17915;52.540;13.604;2023-11-22T07:33:14;13.35;;;6.55;;
31282;SDS011;17915;52.540;13.604;2023-11-22T07:35:43;12.43;;;7.20;;
31282;SDS011;17915;52.540;13.604;2023-11-22T07:38:09;9.80;;;6.47;;
31282;SDS011;17915;52.540;13.604;2023-11-22T07:40:36;11.32;;;7.43;;
31282;SDS011;17915;52.540;13.604;2023-11-22T07:43:02;7.93;;;6.07;;
31282;SDS011;17915;52.540;13.604;2023-11-22T07:45:29;16.48;;;7.32;;
31282;SDS011;17915;52.540;13.604;2023-11-22T07:47:56;10.13;;;6.53;;
31282;SDS011;17915;52.540;13.604;2023-11-22T07:50:24;12.30;;;8.02;;
31282;SDS011;17915;52.540;13.604;2023-11-22T07:52:50;16.90;;;8.00;;
31282;SDS011;17915;52.540;13.604;2023-11-22T07:55:16;13.87;;;7.23;;
31282;SDS011;17915;52.540;13.604;2023-11-22T07:57:43;14.93;;;8.20;;
31282;SDS011;17915;52.540;13.604;2023-11-22T08:00:12;13.85;;;7.18;;
31282;SDS011;17915;52.540;13.604;2023-11-22T08:02:38;11.32;;;6.45;;
31282;SDS011;17915;52.540;13.604;2023-11-22T08:05:08;19.83;;;9.02;;
31282;SDS011;17915;52.540;13.604;2023-11-22T08:07:34;13.83;;;6.97;;
31282;SDS011;17915;52.540;13.604;2023-11-22T08:10:03;15.77;;;7.15;;
31282;SDS011;17915;52.540;13.604;2023-11-22T08:12:34;13.32;;;7.43;;
31282;SDS011;17915;52.540;13.604;2023-11-22T08:15:00;10.52;;;6.80;;
31282;SDS011;17915;52.540;13.604;2023-11-22T08:17:27;11.93;;;6.53;;
31282;SDS011;17915;52.540;13.604;2023-11-22T08:19:52;12.87;;;7.63;;
31282;SDS011;17915;52.540;13.604;2023-11-22T08:22:19;12.55;;;7.43;;
31282;SDS011;17915;52.540;13.604;2023-11-22T08:24:44;14.93;;;7.30;;
31282;SDS011;17915;52.540;13.604;2023-11-22T08:27:11;11.43;;;7.50;;
31282;SDS011;17915;52.540;13.604;2023-11-22T08:29:37;19.02;;;7.00;;
31282;SDS011;17915;52.540;13.604;2023-11-22T08:32:02;14.63;;;7.27;;
31282;SDS011;17915;52.540;13.604;2023-11-22T08:34:28;13.32;;;7.07;;
31282;SDS011;17915;52.540;13.604;2023-11-22T08:36:53;19.63;;;7.83;;
31282;SDS011;17915;52.540;13.604;2023-11-22T08:39:19;13.85;;;6.50;;
31282;SDS011;17915;52.540;13.604;2023-11-22T08:41:45;18.13;;;7.37;;
31282;SDS011;17915;52.540;13.604;2023-11-22T08:44:10;10.83;;;7.43;;
31282;SDS011;17915;52.540;13.604;2023-11-22T08:46:35;12.77;;;8.27;;
31282;SDS011;17915;52.540;13.604;2023-11-22T08:49:01;8.60;;;5.07;;
31282;SDS011;17915;52.540;13.604;2023-11-22T08:51:27;12.38;;;7.57;;
31282;SDS011;17915;52.540;13.604;2023-11-22T08:53:52;13.73;;;8.47;;
31282;SDS011;17915;52.540;13.604;2023-11-22T08:56:18;11.23;;;7.20;;
31282;SDS011;17915;52.540;13.604;2023-11-22T08:58:45;9.18;;;6.60;;
31282;SDS011;17915;52.540;13.604;2023-11-22T09:01:10;8.57;;;6.30;;
31282;SDS011;17915;52.540;13.604;2023-11-22T09:03:36;10.53;;;6.93;;
31282;SDS011;17915;52.540;13.604;2023-11-22T09:06:03;12.77;;;6.50;;
31282;SDS011;17915;52.540;13.604;2023-11-22T09:08:28;14.10;;;7.37;;
31282;SDS011;17915;52.540;13.604;2023-11-22T09:13:20;11.05;;;7.10;;
31282;SDS011;17915;52.540;13.604;2023-11-22T09:15:47;11.93;;;6.60;;
31282;SDS011;17915;52.540;13.604;2023-11-22T09:18:12;11.93;;;7.30;;
31282;SDS011;17915;52.540;13.604;2023-11-22T09:20:38;11.80;;;6.77;;
31282;SDS011;17915;52.540;13.604;2023-11-22T09:23:04;11.57;;;7.05;;
31282;SDS011;17915;52.540;13.604;2023-11-22T09:25:29;11.97;;;6.83;;
31282;SDS011;17915;52.540;13.604;2023-11-22T09:27:56;12.18;;;6.10;;
31282;SDS011;17915;52.540;13.604;2023-11-22T09:30:27;16.25;;;6.70;;
31282;SDS011;17915;52.540;13.604;2023-11-22T09:33:08;10.38;;;6.75;;
31282;SDS011;17915;52.540;13.604;2023-11-22T09:35:34;15.05;;;8.40;;
31282;SDS011;17915;52.540;13.604;2023-11-22T09:38:00;14.23;;;7.93;;
31282;SDS011;17915;52.540;13.604;2023-11-22T09:40:31;13.68;;;7.60;;
31282;SDS011;17915;52.540;13.604;2023-11-22T09:43:00;14.53;;;7.97;;
31282;SDS011;17915;52.540;13.604;2023-11-22T09:45:27;16.23;;;8.68;;
31282;SDS011;17915;52.540;13.604;2023-11-22T09:47:54;11.85;;;7.53;;
31282;SDS011;17915;52.540;13.604;2023-11-22T09:50:21;11.10;;;7.10;;
31282;SDS011;17915;52.540;13.604;2023-11-22T09:52:59;11.23;;;7.90;;
31282;SDS011;17915;52.540;13.604;2023-11-22T09:55:26;10.73;;;7.50;;
31282;SDS011;17915;52.540;13.604;2023-11-22T09:57:53;12.07;;;7.47;;
31282;SDS011;17915;52.540;13.604;2023-11-22T10:00:19;7.53;;;6.28;;
31282;SDS011;17915;52.540;13.604;2023-11-22T10:02:46;12.82;;;7.25;;
31282;SDS011;17915;52.540;13.604;2023-11-22T10:05:12;9.70;;;6.15;;
31282;SDS011;17915;52.540;13.604;2023-11-22T10:07:37;8.43;;;6.60;;
31282;SDS011;17915;52.540;13.604;2023-11-22T10:10:03;12.20;;;7.07;;
31282;SDS011;17915;52.540;13.604;2023-11-22T10:12:30;12.57;;;8.60;;
31282;SDS011;17915;52.540;13.604;2023-11-22T10:15:07;7.20;;;6.00;;
31282;SDS011;17915;52.540;13.604;2023-11-22T10:17:36;12.02;;;7.80;;
31282;SDS011;17915;52.540;13.604;2023-11-22T10:20:01;9.80;;;7.47;;
31282;SDS011;17915;52.540;13.604;2023-11-22T10:22:27;9.27;;;7.75;;
31282;SDS011;17915;52.540;13.604;2023-11-22T10:24:52;16.77;;;8.40;;
31282;SDS011;17915;52.540;13.604;2023-11-22T10:27:20;16.80;;;7.18;;
31282;SDS011;17915;52.540;13.604;2023-11-22T10:29:45;10.83;;;7.63;;
31282;SDS011;17915;52.540;13.604;2023-11-22T10:32:13;10.70;;;7.15;;
31282;SDS011;17915;52.540;13.604;2023-11-22T10:34:38;10.73;;;7.50;;
31282;SDS011;17915;52.540;13.604;2023-11-22T10:37:04;12.27;;;6.73;;
31282;SDS011;17915;52.540;13.604;2023-11-22T10:39:29;9.17;;;6.70;;
31282;SDS011;17915;52.540;13.604;2023-11-22T10:41:55;10.00;;;7.10;;
31282;SDS011;17915;52.540;13.604;2023-11-22T10:44:20;9.05;;;6.38;;
31282;SDS011;17915;52.540;13.604;2023-11-22T10:46:49;9.57;;;6.65;;
31282;SDS011;17915;52.540;13.604;2023-11-22T10:49:16;9.52;;;6.80;;
31282;SDS011;17915;52.540;13.604;2023-11-22T10:51:41;13.40;;;7.50;;
31282;SDS011;17915;52.540;13.604;2023-11-22T10:54:10;7.60;;;6.63;;
31282;SDS011;17915;52.540;13.604;2023-11-22T10:56:36;10.68;;;7.43;;
31282;SDS011;17915;52.540;13.604;2023-11-22T10:59:05;9.38;;;6.75;;
31282;SDS011;17915;52.540;13.604;2023-11-22T11:01:34;11.43;;;7.22;;
31282;SDS011;17915;52.540;13.604;2023-11-22T11:04:01;11.18;;;7.55;;
31282;SDS011;17915;52.540;13.604;2023-11-22T11:06:32;11.73;;;7.65;;
31282;SDS011;17915;52.540;13.604;2023-11-22T11:09:03;9.68;;;6.85;;
31282;SDS011;17915;52.540;13.604;2023-11-22T11:11:36;11.18;;;7.85;;
31282;SDS011;17915;52.540;13.604;2023-11-22T11:14:02;10.65;;;7.57;;
31282;SDS011;17915;52.540;13.604;2023-11-22T11:16:28;15.73;;;7.15;;
31282;SDS011;17915;52.540;13.604;2023-11-22T11:18:56;8.30;;;7.13;;
31282;SDS011;17915;52.540;13.604;2023-11-22T11:21:21;13.60;;;8.57;;
31282;SDS011;17915;52.540;13.604;2023-11-22T11:23:47;13.50;;;8.13;;
31282;SDS011;17915;52.540;13.604;2023-11-22T11:26:19;10.52;;;7.07;;
31282;SDS011;17915;52.540;13.604;2023-11-22T11:28:47;11.02;;;7.07;;
31282;SDS011;17915;52.540;13.604;2023-11-22T11:31:13;11.18;;;7.22;;
31282;SDS011;17915;52.540;13.604;2023-11-22T11:38:50;10.63;;;7.00;;
31282;SDS011;17915;52.540;13.604;2023-11-22T11:41:16;10.98;;;6.78;;
31282;SDS011;17915;52.540;13.604;2023-11-22T11:43:42;9.10;;;7.13;;
31282;SDS011;17915;52.540;13.604;2023-11-22T11:46:09;13.35;;;7.80;;
31282;SDS011;17915;52.540;13.604;2023-11-22T11:51:00;9.73;;;6.90;;
31282;SDS011;17915;52.540;13.604;2023-11-22T11:53:26;10.70;;;7.38;;
31282;SDS011;17915;52.540;13.604;2023-11-22T11:55:52;10.20;;;7.37;;
31282;SDS011;17915;52.540;13.604;2023-11-22T12:00:44;12.75;;;8.07;;
31282;SDS011;17915;52.540;13.604;2023-11-22T12:03:09;9.97;;;7.73;;
31282;SDS011;17915;52.540;13.604;2023-11-22T12:05:35;11.70;;;6.83;;
31282;SDS011;17915;52.540;13.604;2023-11-22T12:08:04;8.60;;;6.70;;
31282;SDS011;17915;52.540;13.604;2023-11-22T12:10:30;7.80;;;6.78;;
31282;SDS011;17915;52.540;13.604;2023-11-22T12:12:55;7.70;;;6.28;;
31282;SDS011;17915;52.540;13.604;2023-11-22T12:15:21;6.28;;;5.70;;
31282;SDS011;17915;52.540;13.604;2023-11-22T12:17:49;5.87;;;5.37;;
31282;SDS011;17915;52.540;13.604;2023-11-22T12:20:21;9.00;;;7.65;;
31282;SDS011;17915;52.540;13.604;2023-11-22T12:22:48;7.93;;;6.88;;
31282;SDS011;17915;52.540;13.604;2023-11-22T12:25:14;10.07;;;6.95;;
31282;SDS011;17915;52.540;13.604;2023-11-22T12:27:43;6.67;;;5.93;;
31282;SDS011;17915;52.540;13.604;2023-11-22T12:33:00;11.88;;;8.20;;
31282;SDS011;17915;52.540;13.604;2023-11-22T12:35:27;11.02;;;6.82;;
31282;SDS011;17915;52.540;13.604;2023-11-22T12:37:52;14.53;;;6.80;;
31282;SDS011;17915;52.540;13.604;2023-11-22T12:40:19;18.02;;;9.90;;
31282;SDS011;17915;52.540;13.604;2023-11-22T12:42:49;9.38;;;7.85;;
31282;SDS011;17915;52.540;13.604;2023-11-22T12:45:18;8.98;;;6.45;;
31282;SDS011;17915;52.540;13.604;2023-11-22T12:47:45;7.70;;;6.93;;
31282;SDS011;17915;52.540;13.604;2023-11-22T12:50:28;12.52;;;7.32;;
31282;SDS011;17915;52.540;13.604;2023-11-22T12:52:55;10.35;;;7.15;;
31282;SDS011;17915;52.540;13.604;2023-11-22T12:55:20;9.93;;;7.30;;
31282;SDS011;17915;52.540;13.604;2023-11-22T12:57:55;16.90;;;9.23;;
31282;SDS011;17915;52.540;13.604;2023-11-22T13:00:21;19.05;;;10.25;;
31282;SDS011;17915;52.540;13.604;2023-11-22T13:02:47;21.40;;;10.17;;
31282;SDS011;17915;52.540;13.604;2023-11-22T13:05:12;11.27;;;8.93;;
31282;SDS011;17915;52.540;13.604;2023-11-22T13:07:40;13.85;;;9.07;;
31282;SDS011;17915;52.540;13.604;2023-11-22T13:10:08;15.52;;;9.18;;
31282;SDS011;17915;52.540;13.604;2023-11-22T13:15:00;11.23;;;6.78;;
31282;SDS011;17915;52.540;13.604;2023-11-22T13:17:25;9.43;;;7.43;;
31282;SDS011;17915;52.540;13.604;2023-11-22T13:19:50;13.73;;;7.13;;
31282;SDS011;17915;52.540;13.604;2023-11-22T13:22:16;9.93;;;7.37;;
31282;SDS011;17915;52.540;13.604;2023-11-22T13:24:41;9.80;;;8.00;;
31282;SDS011;17915;52.540;13.604;2023-11-22T13:27:09;8.20;;;6.97;;
31282;SDS011;17915;52.540;13.604;2023-11-22T13:29:34;10.70;;;7.15;;
31282;SDS011;17915;52.540;13.604;2023-11-22T13:32:00;16.37;;;6.43;;
31282;SDS011;17915;52.540;13.604;2023-11-22T13:34:25;10.97;;;7.57;;
31282;SDS011;17915;52.540;13.604;2023-11-22T13:36:51;33.17;;;8.37;;
31282;SDS011;17915;52.540;13.604;2023-11-22T13:39:16;12.93;;;8.10;;
31282;SDS011;17915;52.540;13.604;2023-11-22T13:41:41;9.70;;;7.27;;
31282;SDS011;17915;52.540;13.604;2023-11-22T13:44:07;6.73;;;6.03;;
31282;SDS011;17915;52.540;13.604;2023-11-22T13:46:32;7.63;;;6.67;;
31282;SDS011;17915;52.540;13.604;2023-11-22T13:48:58;8.37;;;5.00;;
31282;SDS011;17915;52.540;13.604;2023-11-22T13:51:24;7.55;;;5.65;;
31282;SDS011;17915;52.540;13.604;2023-11-22T13:53:50;7.50;;;6.00;;
31282;SDS011;17915;52.540;13.604;2023-11-22T13:56:18;6.40;;;5.80;;
31282;SDS011;17915;52.540;13.604;2023-11-22T13:58:44;10.00;;;6.05;;
31282;SDS011;17915;52.540;13.604;2023-11-22T14:01:09;12.47;;;7.07;;
31282;SDS011;17915;52.540;13.604;2023-11-22T14:03:40;7.78;;;5.57;;
31282;SDS011;17915;52.540;13.604;2023-11-22T14:06:05;8.50;;;6.60;;
31282;SDS011;17915;52.540;13.604;2023-11-22T14:08:31;6.53;;;5.43;;
31282;SDS011;17915;52.540;13.604;2023-11-22T14:10:56;8.93;;;7.30;;
31282;SDS011;17915;52.540;13.604;2023-11-22T14:13:22;9.30;;;7.13;;
31282;SDS011;17915;52.540;13.604;2023-11-22T14:15:47;15.63;;;7.77;;
31282;SDS011;17915;52.540;13.604;2023-11-22T14:18:12;8.37;;;7.60;;
31282;SDS011;17915;52.540;13.604;2023-11-22T14:20:38;15.77;;;7.53;;
31282;SDS011;17915;52.540;13.604;2023-11-22T14:23:04;13.40;;;8.80;;
31282;SDS011;17915;52.540;13.604;2023-11-22T14:25:29;7.53;;;6.90;;
31282;SDS011;17915;52.540;13.604;2023-11-22T14:27:56;10.27;;;6.40;;
31282;SDS011;17915;52.540;13.604;2023-11-22T14:30:22;12.90;;;7.07;;
31282;SDS011;17915;52.540;13.604;2023-11-22T14:32:50;10.18;;;7.45;;
31282;SDS011;17915;52.540;13.604;2023-11-22T14:35:16;9.40;;;7.18;;
31282;SDS011;17915;52.540;13.604;2023-11-22T14:40:09;7.40;;;6.13;;
31282;SDS011;17915;52.540;13.604;2023-11-22T14:42:44;11.88;;;5.70;;
31282;SDS011;17915;52.540;13.604;2023-11-22T14:45:12;11.98;;;7.30;;
31282;SDS011;17915;52.540;13.604;2023-11-22T14:47:38;11.70;;;7.28;;
31282;SDS011;17915;52.540;13.604;2023-11-22T14:50:05;18.25;;;7.40;;
31282;SDS011;17915;52.540;13.604;2023-11-22T14:52:31;13.23;;;7.70;;